createdAt,value
2018-07-30T00:01:03.473Z,6.70
2018-07-30T00:03:32.302Z,5.80
2018-07-30T00:06:00.669Z,6.60
2018-07-30T00:08:29.066Z,6.77
2018-07-30T00:10:57.393Z,6.73
2018-07-30T00:13:25.748Z,6.60
2018-07-30T00:15:54.080Z,7.00
2018-07-30T00:18:22.549Z,6.70
2018-07-30T00:20:50.886Z,6.93
2018-07-30T00:23:19.232Z,6.67
2018-07-30T00:25:47.571Z,6.63
2018-07-30T00:28:15.903Z,6.90
2018-07-30T00:30:44.232Z,5.93
2018-07-30T00:33:12.577Z,6.50
2018-07-30T00:35:41.057Z,6.87
2018-07-30T00:38:09.388Z,6.67
2018-07-30T00:40:37.735Z,6.43
2018-07-30T00:43:06.056Z,6.73
2018-07-30T00:45:34.411Z,6.87
2018-07-30T00:48:02.752Z,7.10
2018-07-30T00:50:31.108Z,6.40
2018-07-30T00:52:59.449Z,6.50
2018-07-30T00:55:27.811Z,6.77
2018-07-30T00:57:56.324Z,6.83
2018-07-30T01:00:24.643Z,6.87
2018-07-30T01:02:52.977Z,7.13
2018-07-30T01:05:21.302Z,6.83
2018-07-30T01:07:49.648Z,6.90
2018-07-30T01:10:18.021Z,7.00
2018-07-30T01:12:46.355Z,6.90
2018-07-30T01:15:14.712Z,6.90
2018-07-30T01:17:43.056Z,6.60
2018-07-30T01:20:11.392Z,6.80
2018-07-30T01:22:39.747Z,6.60
2018-07-30T01:25:08.074Z,7.00
2018-07-30T01:27:36.422Z,7.10
2018-07-30T01:30:05.279Z,7.00
2018-07-30T01:32:33.595Z,7.37
2018-07-30T01:35:01.950Z,7.60
2018-07-30T01:37:30.265Z,7.33
2018-07-30T01:39:58.607Z,7.33
2018-07-30T01:42:26.954Z,6.77
2018-07-30T01:44:55.283Z,7.43
2018-07-30T01:47:23.605Z,7.00
2018-07-30T01:49:51.967Z,6.93
2018-07-30T01:52:20.315Z,7.03
2018-07-30T01:54:48.622Z,6.90
2018-07-30T01:57:16.951Z,7.07
2018-07-30T01:59:45.324Z,7.47
2018-07-30T02:02:13.653Z,6.90
2018-07-30T02:04:42.009Z,7.57
2018-07-30T02:07:10.390Z,6.77
2018-07-30T02:09:38.716Z,7.33
2018-07-30T02:12:07.078Z,7.43
2018-07-30T02:14:35.423Z,7.07
2018-07-30T02:17:03.773Z,7.60
2018-07-30T02:19:32.117Z,7.30
2018-07-30T02:22:00.437Z,7.07
2018-07-30T02:24:28.762Z,7.33
2018-07-30T02:26:57.108Z,8.23
2018-07-30T02:29:25.426Z,7.27
2018-07-30T02:31:53.749Z,7.63
2018-07-30T02:34:22.070Z,7.87
2018-07-30T02:36:50.410Z,7.37
2018-07-30T02:39:18.722Z,7.13
2018-07-30T02:41:47.074Z,7.73
2018-07-30T02:44:15.400Z,6.83
2018-07-30T02:46:43.751Z,7.30
2018-07-30T02:49:12.194Z,7.57
2018-07-30T02:51:40.568Z,7.30
2018-07-30T02:54:09.175Z,7.17
2018-07-30T02:56:37.537Z,6.83
2018-07-30T02:59:05.873Z,7.90
2018-07-30T03:01:34.218Z,7.07
2018-07-30T03:04:02.595Z,7.60
2018-07-30T03:06:30.973Z,7.63
2018-07-30T03:08:59.330Z,7.43
2018-07-30T03:11:27.660Z,7.63
2018-07-30T03:13:55.984Z,7.70
2018-07-30T03:16:24.332Z,7.93
2018-07-30T03:18:52.743Z,7.20
2018-07-30T03:21:21.044Z,7.77
2018-07-30T03:23:49.360Z,8.07
2018-07-30T03:26:17.727Z,8.00
2018-07-30T03:28:46.177Z,7.13
2018-07-30T03:31:14.530Z,7.83
2018-07-30T03:33:42.854Z,7.80
2018-07-30T03:36:11.197Z,7.63
2018-07-30T03:38:39.555Z,7.90
2018-07-30T03:41:07.893Z,7.97
2018-07-30T03:43:36.227Z,8.10
2018-07-30T03:46:04.561Z,7.27
2018-07-30T03:48:32.881Z,7.03
2018-07-30T03:51:01.233Z,7.63
2018-07-30T03:53:29.580Z,7.73
2018-07-30T03:55:57.950Z,8.00
2018-07-30T03:58:26.262Z,7.47
2018-07-30T04:00:54.571Z,7.83
2018-07-30T04:03:22.903Z,7.60
2018-07-30T04:05:51.467Z,7.73
2018-07-30T04:08:19.814Z,7.67
2018-07-30T04:10:48.123Z,7.90
2018-07-30T04:13:16.466Z,7.67
2018-07-30T04:15:44.799Z,7.30
2018-07-30T04:18:13.143Z,7.77
2018-07-30T04:20:41.505Z,8.67
2018-07-30T04:23:09.865Z,7.60
2018-07-30T04:25:38.244Z,7.50
2018-07-30T04:28:06.614Z,7.83
2018-07-30T04:30:35.024Z,8.30
2018-07-30T04:33:03.940Z,7.90
2018-07-30T04:35:32.271Z,7.50
2018-07-30T04:38:00.592Z,7.40
2018-07-30T04:40:28.938Z,8.07
2018-07-30T04:42:57.291Z,7.40
2018-07-30T04:45:25.626Z,7.63
2018-07-30T04:47:53.959Z,7.73
2018-07-30T04:50:22.369Z,8.07
2018-07-30T04:52:50.664Z,7.43
2018-07-30T04:55:19.027Z,7.30
2018-07-30T04:57:47.427Z,8.07
2018-07-30T05:00:15.808Z,7.80
2018-07-30T05:02:44.128Z,8.23
2018-07-30T05:05:12.519Z,7.27
2018-07-30T05:07:41.432Z,7.13
2018-07-30T05:10:09.747Z,7.90
2018-07-30T05:12:38.107Z,7.70
2018-07-30T05:15:06.466Z,7.70
2018-07-30T05:17:34.816Z,7.80
2018-07-30T05:20:03.142Z,7.77
2018-07-30T05:22:31.522Z,7.83
2018-07-30T05:24:59.908Z,7.80
2018-07-30T05:27:28.264Z,7.70
2018-07-30T05:29:56.629Z,8.10
2018-07-30T05:32:25.038Z,8.30
2018-07-30T05:34:53.414Z,8.03
2018-07-30T05:37:21.816Z,8.20
2018-07-30T05:39:50.170Z,7.47
2018-07-30T05:42:18.490Z,8.07
2018-07-30T05:44:46.831Z,7.87
2018-07-30T05:47:15.164Z,7.83
2018-07-30T05:49:43.469Z,7.80
2018-07-30T05:52:11.802Z,7.83
2018-07-30T05:54:40.143Z,7.40
2018-07-30T05:57:08.721Z,8.17
2018-07-30T05:59:37.167Z,7.50
2018-07-30T06:02:05.419Z,7.90
2018-07-30T06:04:33.757Z,7.50
2018-07-30T06:07:02.118Z,7.30
2018-07-30T06:09:30.467Z,7.07
2018-07-30T06:11:58.806Z,8.77
2018-07-30T06:14:27.126Z,7.57
2018-07-30T06:16:55.456Z,7.80
2018-07-30T06:19:23.779Z,7.50
2018-07-30T06:21:52.117Z,7.73
2018-07-30T06:24:20.472Z,7.90
2018-07-30T06:26:48.819Z,7.67
2018-07-30T06:29:17.151Z,8.10
2018-07-30T06:31:45.514Z,8.00
2018-07-30T06:34:13.878Z,7.37
2018-07-30T06:36:42.256Z,7.50
2018-07-30T06:39:11.250Z,7.23
2018-07-30T06:41:39.841Z,7.10
2018-07-30T06:44:08.213Z,6.80
2018-07-30T06:46:36.929Z,10.20
2018-07-30T06:49:05.846Z,8.67
2018-07-30T06:51:34.257Z,7.07
2018-07-30T06:54:02.577Z,7.43
2018-07-30T06:56:30.912Z,7.33
2018-07-30T06:58:59.240Z,7.57
2018-07-30T07:01:27.580Z,7.60
2018-07-30T07:03:55.931Z,7.30
2018-07-30T07:06:24.281Z,6.73
2018-07-30T07:08:52.639Z,7.27
2018-07-30T07:11:20.995Z,7.17
2018-07-30T07:13:49.335Z,7.23
2018-07-30T07:16:17.714Z,7.07
2018-07-30T07:18:46.063Z,7.53
2018-07-30T07:21:14.476Z,7.17
2018-07-30T07:23:42.832Z,7.00
2018-07-30T07:26:11.186Z,6.77
2018-07-30T07:28:39.553Z,6.87
2018-07-30T07:31:07.901Z,6.30
2018-07-30T07:33:36.236Z,6.00
2018-07-30T07:36:04.712Z,5.75
2018-07-30T07:38:33.131Z,5.20
2018-07-30T07:41:01.465Z,5.15
2018-07-30T07:43:29.819Z,4.53
2018-07-30T07:45:58.194Z,4.72
2018-07-30T07:48:26.515Z,4.37
2018-07-30T07:50:55.144Z,3.92
2018-07-30T07:53:23.235Z,3.70
2018-07-30T07:55:51.556Z,3.58
2018-07-30T07:58:19.940Z,3.80
2018-07-30T08:00:48.266Z,4.08
2018-07-30T08:03:16.644Z,3.80
2018-07-30T08:05:45.026Z,4.10
2018-07-30T08:08:13.372Z,4.50
2018-07-30T08:10:41.709Z,3.92
2018-07-30T08:13:10.077Z,4.30
2018-07-30T08:15:38.429Z,4.47
2018-07-30T08:18:06.780Z,4.10
2018-07-30T08:20:35.157Z,4.28
2018-07-30T08:23:03.487Z,4.60
2018-07-30T08:25:31.848Z,4.05
2018-07-30T08:28:00.227Z,3.95
2018-07-30T08:30:28.560Z,4.00
2018-07-30T08:32:56.889Z,3.62
2018-07-30T08:35:25.230Z,3.95
2018-07-30T08:37:53.611Z,4.10
2018-07-30T08:40:21.994Z,3.92
2018-07-30T08:42:50.326Z,4.05
2018-07-30T08:45:18.676Z,4.20
2018-07-30T08:47:47.055Z,4.10
2018-07-30T08:50:15.433Z,4.22
2018-07-30T08:52:43.783Z,3.80
2018-07-30T08:55:12.142Z,4.50
2018-07-30T08:57:40.488Z,4.47
2018-07-30T09:00:09.699Z,4.70
2018-07-30T09:02:38.485Z,4.70
2018-07-30T09:05:06.936Z,4.92
2018-07-30T09:07:35.444Z,4.75
2018-07-30T09:10:03.824Z,4.80
2018-07-30T09:12:32.188Z,5.28
2018-07-30T09:15:00.553Z,5.35
2018-07-30T09:17:28.909Z,5.35
2018-07-30T09:19:57.246Z,6.15
2018-07-30T09:22:25.659Z,6.85
2018-07-30T09:24:54.173Z,6.58
2018-07-30T09:27:22.659Z,7.22
2018-07-30T09:29:51.013Z,7.97
2018-07-30T09:32:19.331Z,7.42
2018-07-30T09:34:47.663Z,6.62
2018-07-30T09:37:16.038Z,6.25
2018-07-30T09:39:44.371Z,5.45
2018-07-30T09:42:12.748Z,4.47
2018-07-30T09:44:41.089Z,4.15
2018-07-30T09:47:09.514Z,3.20
2018-07-30T09:49:37.861Z,3.00
2018-07-30T09:52:06.241Z,2.80
2018-07-30T09:54:34.588Z,2.90
2018-07-30T09:57:03.003Z,2.92
2018-07-30T09:59:31.339Z,3.42
2018-07-30T10:01:59.670Z,3.62
2018-07-30T10:04:28.009Z,4.08
2018-07-30T10:06:56.464Z,4.17
2018-07-30T10:09:24.774Z,4.33
2018-07-30T10:11:55.958Z,4.40
2018-07-30T10:14:24.894Z,4.90
2018-07-30T10:16:53.745Z,4.37
2018-07-30T10:19:22.059Z,4.90
2018-07-30T10:21:50.408Z,3.80
2018-07-30T10:24:18.745Z,4.40
2018-07-30T10:26:47.078Z,4.58
2018-07-30T10:29:15.468Z,4.37
2018-07-30T10:31:43.820Z,4.28
2018-07-30T10:34:12.146Z,4.12
2018-07-30T10:36:40.472Z,4.10
2018-07-30T10:39:09.350Z,3.80
2018-07-30T10:41:37.683Z,3.00
2018-07-30T10:44:06.048Z,2.80
2018-07-30T10:46:34.367Z,2.12
2018-07-30T10:49:02.687Z,2.10
2018-07-30T10:51:31.021Z,2.05
2018-07-30T10:53:59.414Z,2.12
2018-07-30T10:56:27.729Z,2.35
2018-07-30T10:58:56.074Z,2.02
2018-07-30T11:01:24.446Z,2.20
2018-07-30T11:03:53.088Z,2.30
2018-07-30T11:06:21.405Z,2.45
2018-07-30T11:08:49.743Z,2.47
2018-07-30T11:11:18.089Z,2.98
2018-07-30T11:13:46.405Z,2.80
2018-07-30T11:16:14.738Z,2.62
2018-07-30T11:18:43.070Z,2.90
2018-07-30T11:21:11.423Z,3.17
2018-07-30T11:23:39.755Z,3.00
2018-07-30T11:26:08.108Z,2.80
2018-07-30T11:28:36.520Z,2.67
2018-07-30T11:31:04.876Z,2.80
2018-07-30T11:33:33.230Z,2.77
2018-07-30T11:36:01.576Z,2.95
2018-07-30T11:38:29.919Z,3.70
2018-07-30T11:40:58.237Z,3.17
2018-07-30T11:43:26.575Z,2.87
2018-07-30T11:45:54.888Z,3.17
2018-07-30T11:48:23.299Z,3.10
2018-07-30T11:50:51.615Z,3.20
2018-07-30T11:53:19.956Z,3.20
2018-07-30T11:55:49.226Z,3.83
2018-07-30T11:58:17.792Z,3.50
2018-07-30T12:00:46.151Z,3.70
2018-07-30T12:03:14.499Z,3.23
2018-07-30T12:05:43.701Z,3.60
2018-07-30T12:08:12.055Z,3.30
2018-07-30T12:10:40.436Z,3.13
2018-07-30T12:13:08.833Z,3.20
2018-07-30T12:15:37.171Z,3.53
2018-07-30T12:18:05.510Z,3.67
2018-07-30T12:20:33.829Z,3.10
2018-07-30T12:23:02.172Z,3.43
2018-07-30T12:25:30.522Z,3.67
2018-07-30T12:27:58.860Z,3.40
2018-07-30T12:30:27.215Z,3.33
2018-07-30T12:32:55.552Z,3.23
2018-07-30T12:35:23.899Z,3.00
2018-07-30T12:37:52.244Z,3.37
2018-07-30T12:40:20.608Z,3.60
2018-07-30T12:42:48.948Z,3.30
2018-07-30T12:45:21.474Z,3.53
2018-07-30T12:47:49.807Z,3.10
2018-07-30T12:50:18.147Z,3.50
2018-07-30T12:52:46.474Z,3.37
2018-07-30T12:55:14.820Z,3.57
2018-07-30T12:57:43.233Z,3.60
2018-07-30T13:00:11.578Z,3.63
2018-07-30T13:02:39.924Z,3.53
2018-07-30T13:05:08.267Z,3.50
2018-07-30T13:07:36.617Z,3.70
2018-07-30T13:10:04.986Z,3.93
2018-07-30T13:12:33.337Z,3.73
2018-07-30T13:15:01.680Z,3.87
2018-07-30T13:17:30.013Z,4.00
2018-07-30T13:19:58.319Z,3.10
2018-07-30T13:22:26.674Z,3.30
2018-07-30T13:24:55.027Z,3.30
2018-07-30T13:27:23.435Z,3.37
2018-07-30T13:29:51.823Z,3.30
2018-07-30T13:32:20.165Z,2.90
2018-07-30T13:34:48.534Z,3.50
2018-07-30T13:37:16.885Z,3.10
2018-07-30T13:39:45.268Z,3.80
2018-07-30T13:42:13.603Z,3.80
2018-07-30T13:44:42.025Z,3.67
2018-07-30T13:47:10.365Z,3.50
2018-07-30T13:49:38.708Z,3.93
2018-07-30T13:52:07.064Z,3.47
2018-07-30T13:54:35.493Z,3.63
2018-07-30T13:57:03.817Z,3.40
2018-07-30T13:59:32.202Z,3.40
2018-07-30T14:02:00.580Z,3.97
2018-07-30T14:04:28.958Z,3.63
2018-07-30T14:06:57.296Z,3.40
2018-07-30T14:09:27.049Z,3.67
2018-07-30T14:11:55.422Z,4.10
2018-07-30T14:14:23.800Z,3.50
2018-07-30T14:16:52.240Z,4.00
2018-07-30T14:19:20.619Z,3.60
2018-07-30T14:21:48.974Z,3.43
2018-07-30T14:24:17.318Z,3.40
2018-07-30T14:26:45.653Z,3.77
2018-07-30T14:29:14.068Z,4.00
2018-07-30T14:31:42.367Z,3.60
2018-07-30T14:34:10.733Z,3.97
2018-07-30T14:36:39.112Z,3.60
2018-07-30T14:39:09.184Z,3.87
2018-07-30T14:41:37.608Z,3.80
2018-07-30T14:44:05.989Z,3.77
2018-07-30T14:46:34.353Z,3.97
2018-07-30T14:49:02.708Z,3.60
2018-07-30T14:51:31.088Z,4.10
2018-07-30T14:53:59.493Z,4.00
2018-07-30T14:56:27.822Z,4.20
2018-07-30T14:58:56.170Z,3.77
2018-07-30T15:01:24.509Z,4.17
2018-07-30T15:03:52.850Z,3.50
2018-07-30T15:06:21.168Z,3.73
2018-07-30T15:08:49.528Z,3.70
2018-07-30T15:11:17.869Z,3.97
2018-07-30T15:13:46.216Z,3.77
2018-07-30T15:16:14.601Z,4.10
2018-07-30T15:18:42.944Z,3.87
2018-07-30T15:21:11.328Z,4.03
2018-07-30T15:23:39.647Z,3.70
2018-07-30T15:26:07.980Z,3.80
2018-07-30T15:28:36.329Z,4.00
2018-07-30T15:31:04.670Z,3.93
2018-07-30T15:33:33.056Z,3.90
2018-07-30T15:36:01.386Z,3.60
2018-07-30T15:38:29.703Z,4.30
2018-07-30T15:40:58.018Z,4.30
2018-07-30T15:43:26.824Z,3.40
2018-07-30T15:45:55.191Z,3.73
2018-07-30T15:48:23.508Z,4.00
2018-07-30T15:50:51.852Z,3.50
2018-07-30T15:53:20.280Z,3.60
2018-07-30T15:55:48.613Z,3.73
2018-07-30T15:58:16.948Z,3.70
2018-07-30T16:00:45.279Z,3.50
2018-07-30T16:03:13.662Z,3.70
2018-07-30T16:05:42.124Z,3.27
2018-07-30T16:08:10.380Z,3.60
2018-07-30T16:10:38.704Z,3.57
2018-07-30T16:13:07.079Z,4.10
2018-07-30T16:15:35.416Z,4.90
2018-07-30T16:18:03.777Z,4.53
2018-07-30T16:20:32.125Z,4.07
2018-07-30T16:23:00.468Z,3.77
2018-07-30T16:25:28.804Z,4.07
2018-07-30T16:27:57.159Z,3.87
2018-07-30T16:30:25.550Z,3.73
2018-07-30T16:32:53.900Z,4.03
2018-07-30T16:35:22.268Z,3.97
2018-07-30T16:37:50.765Z,3.47
2018-07-30T16:40:19.117Z,3.70
2018-07-30T16:42:47.723Z,3.53
2018-07-30T16:45:16.081Z,3.77
2018-07-30T16:47:44.429Z,3.90
2018-07-30T16:50:12.792Z,3.73
2018-07-30T16:52:41.148Z,3.87
2018-07-30T16:55:09.502Z,3.60
2018-07-30T16:57:37.890Z,4.20
2018-07-30T17:00:08.658Z,4.27
2018-07-30T17:02:37.028Z,3.63
2018-07-30T17:05:05.844Z,3.80
2018-07-30T17:07:34.213Z,4.10
2018-07-30T17:10:02.576Z,3.87
2018-07-30T17:12:30.949Z,3.83
2018-07-30T17:14:59.295Z,3.60
2018-07-30T17:17:27.612Z,3.70
2018-07-30T17:19:56.051Z,3.67
2018-07-30T17:22:24.383Z,3.30
2018-07-30T17:24:52.713Z,3.83
2018-07-30T17:27:21.024Z,3.83
2018-07-30T17:29:49.456Z,3.70
2018-07-30T17:32:17.776Z,3.27
2018-07-30T17:34:46.133Z,3.63
2018-07-30T17:37:14.464Z,3.57
2018-07-30T17:39:42.806Z,3.70
2018-07-30T17:42:11.158Z,3.63
2018-07-30T17:44:39.529Z,3.60
2018-07-30T17:47:07.944Z,3.80
2018-07-30T17:49:36.291Z,3.70
2018-07-30T17:52:04.632Z,3.67
2018-07-30T17:54:32.997Z,3.33
2018-07-30T17:57:01.325Z,3.10
2018-07-30T17:59:29.659Z,3.60
2018-07-30T18:01:57.992Z,3.13
2018-07-30T18:04:26.360Z,3.50
2018-07-30T18:06:54.670Z,3.30
2018-07-30T18:09:22.999Z,3.20
2018-07-30T18:11:51.345Z,3.20
2018-07-30T18:14:19.674Z,3.90
2018-07-30T18:16:48.017Z,2.90
2018-07-30T18:19:16.361Z,3.50
2018-07-30T18:21:44.719Z,3.70
2018-07-30T18:24:13.087Z,3.20
2018-07-30T18:26:41.439Z,3.20
2018-07-30T18:29:09.809Z,3.27
2018-07-30T18:31:38.152Z,3.40
2018-07-30T18:34:06.472Z,3.57
2018-07-30T18:36:34.879Z,3.37
2018-07-30T18:39:03.365Z,3.00
2018-07-30T18:41:31.710Z,3.17
2018-07-30T18:44:00.034Z,3.27
2018-07-30T18:46:28.416Z,3.37
2018-07-30T18:48:56.749Z,3.17
2018-07-30T18:51:25.120Z,3.60
2018-07-30T18:53:53.447Z,3.30
2018-07-30T18:56:21.788Z,3.27
2018-07-30T18:58:50.133Z,3.40
2018-07-30T19:01:18.463Z,3.83
2018-07-30T19:03:46.948Z,3.63
2018-07-30T19:06:15.296Z,3.40
2018-07-30T19:08:43.632Z,3.47
2018-07-30T19:11:11.965Z,3.37
2018-07-30T19:13:40.297Z,3.67
2018-07-30T19:16:08.679Z,4.27
2018-07-30T19:18:37.009Z,3.70
2018-07-30T19:21:05.426Z,3.50
2018-07-30T19:23:33.770Z,3.93
2018-07-30T19:26:02.120Z,3.27
2018-07-30T19:28:30.454Z,3.90
2018-07-30T19:30:58.770Z,3.50
2018-07-30T19:33:27.121Z,3.37
2018-07-30T19:35:55.464Z,3.70
2018-07-30T19:38:23.889Z,3.70
2018-07-30T19:40:52.233Z,3.73
2018-07-30T19:43:20.594Z,3.60
2018-07-30T19:45:48.926Z,3.37
2018-07-30T19:48:17.302Z,3.40
2018-07-30T19:50:45.722Z,3.60
2018-07-30T19:53:14.067Z,4.10
2018-07-30T19:55:42.444Z,4.10
2018-07-30T19:58:10.991Z,3.97
2018-07-30T20:00:39.180Z,4.10
2018-07-30T20:03:07.565Z,4.03
2018-07-30T20:05:36.007Z,3.80
2018-07-30T20:08:04.359Z,3.60
2018-07-30T20:10:32.705Z,3.53
2018-07-30T20:13:01.116Z,3.60
2018-07-30T20:15:29.479Z,7.47
2018-07-30T20:17:58.264Z,3.57
2018-07-30T20:20:26.592Z,3.70
2018-07-30T20:22:54.969Z,3.63
2018-07-30T20:25:23.349Z,3.97
2018-07-30T20:27:51.698Z,3.80
2018-07-30T20:30:20.110Z,3.93
2018-07-30T20:32:48.456Z,3.90
2018-07-30T20:35:16.812Z,3.63
2018-07-30T20:37:45.975Z,3.27
2018-07-30T20:40:14.577Z,3.33
2018-07-30T20:42:43.039Z,3.83
2018-07-30T20:45:11.420Z,3.10
2018-07-30T20:47:39.756Z,3.20
2018-07-30T20:50:08.108Z,4.00
2018-07-30T20:52:36.476Z,3.73
2018-07-30T20:55:04.891Z,3.90
2018-07-30T20:57:33.370Z,3.73
2018-07-30T21:00:01.750Z,3.77
2018-07-30T21:02:30.134Z,3.77
2018-07-30T21:04:58.507Z,3.90
2018-07-30T21:07:26.886Z,5.20
2018-07-30T21:09:55.354Z,4.00
2018-07-30T21:12:23.715Z,3.90
2018-07-30T21:14:52.097Z,3.80
2018-07-30T21:17:20.507Z,3.50
2018-07-30T21:19:48.845Z,3.73
2018-07-30T21:22:17.224Z,3.87
2018-07-30T21:24:45.566Z,3.83
2018-07-30T21:27:13.881Z,4.30
2018-07-30T21:29:42.226Z,3.90
2018-07-30T21:32:10.574Z,4.30
2018-07-30T21:34:38.915Z,3.90
2018-07-30T21:37:07.257Z,3.93
2018-07-30T21:39:35.609Z,4.37
2018-07-30T21:42:03.949Z,4.17
2018-07-30T21:44:32.295Z,4.30
2018-07-30T21:47:00.613Z,4.27
2018-07-30T21:49:28.951Z,4.20
2018-07-30T21:51:57.268Z,4.30
2018-07-30T21:54:25.619Z,4.40
2018-07-30T21:56:53.985Z,4.40
2018-07-30T21:59:22.463Z,3.90
2018-07-30T22:01:50.815Z,4.60
2018-07-30T22:04:19.193Z,4.10
2018-07-30T22:06:47.576Z,4.40
2018-07-30T22:09:15.956Z,3.93
2018-07-30T22:11:44.328Z,4.07
2018-07-30T22:14:12.712Z,4.47
2018-07-30T22:16:41.055Z,4.23
2018-07-30T22:19:09.431Z,4.43
2018-07-30T22:21:37.845Z,4.20
2018-07-30T22:24:06.384Z,4.10
2018-07-30T22:26:34.722Z,4.53
2018-07-30T22:29:03.085Z,4.33
2018-07-30T22:31:31.432Z,4.40
2018-07-30T22:33:59.759Z,4.57
2018-07-30T22:36:28.123Z,4.00
2018-07-30T22:38:56.455Z,4.70
2018-07-30T22:41:24.808Z,4.63
2018-07-30T22:43:53.140Z,4.60
2018-07-30T22:46:21.501Z,4.57
2018-07-30T22:48:49.859Z,4.70
2018-07-30T22:51:18.219Z,4.53
2018-07-30T22:53:46.552Z,4.47
2018-07-30T22:56:14.871Z,4.90
2018-07-30T22:58:43.179Z,4.30
2018-07-30T23:01:11.532Z,4.63
2018-07-30T23:03:39.863Z,4.60
2018-07-30T23:06:08.206Z,4.50
2018-07-30T23:08:36.539Z,4.23
2018-07-30T23:11:04.880Z,5.10
2018-07-30T23:13:33.259Z,4.60
2018-07-30T23:16:01.658Z,4.67
2018-07-30T23:18:29.982Z,4.93
2018-07-30T23:20:58.310Z,4.70
2018-07-30T23:23:26.736Z,4.57
2018-07-30T23:25:55.053Z,4.53
2018-07-30T23:28:23.395Z,4.80
2018-07-30T23:30:51.725Z,5.17
2018-07-30T23:33:20.088Z,4.93
2018-07-30T23:35:48.434Z,4.83
2018-07-30T23:38:16.761Z,4.87
2018-07-30T23:40:45.093Z,4.63
2018-07-30T23:43:13.416Z,5.13
2018-07-30T23:45:42.788Z,5.10
2018-07-30T23:48:11.130Z,5.20
2018-07-30T23:50:39.456Z,4.70
2018-07-30T23:53:07.796Z,5.13
2018-07-30T23:55:36.129Z,4.57
2018-07-30T23:58:04.479Z,5.20
